sensor_id;sensor_type;location;lat;lon;timestamp;pressure;altitude;pressure_sealevel;temperature;humidity
46534;BME280;32260;52.008;4.752;2022-08-19T00:02:02;101430.50;;;21.41;64.45
46534;BME280;32260;52.008;4.752;2022-08-19T00:04:34;101429.72;;;21.39;64.52
46534;BME280;32260;52.008;4.752;2022-08-19T00:07:04;101426.25;;;21.37;64.39
46534;BME280;32260;52.008;4.752;2022-08-19T00:09:32;101432.59;;;21.36;64.42
46534;BME280;32260;52.008;4.752;2022-08-19T00:12:00;101432.53;;;21.37;64.46
46534;BME280;32260;52.008;4.752;2022-08-19T00:14:28;101433.47;;;21.36;64.70
46534;BME280;32260;52.008;4.752;2022-08-19T00:16:58;101433.38;;;21.38;64.97
46534;BME280;32260;52.008;4.752;2022-08-19T00:19:38;101444.88;;;21.41;64.97
46534;BME280;32260;52.008;4.752;2022-08-19T00:22:11;101440.84;;;21.32;64.92
46534;BME280;32260;52.008;4.752;2022-08-19T00:24:40;101442.75;;;21.30;64.92
46534;BME280;32260;52.008;4.752;2022-08-19T00:27:11;101442.84;;;21.29;64.91
46534;BME280;32260;52.008;4.752;2022-08-19T00:29:41;101435.81;;;21.26;65.00
46534;BME280;32260;52.008;4.752;2022-08-19T00:32:08;101435.91;;;21.25;64.75
46534;BME280;32260;52.008;4.752;2022-08-19T00:34:36;101426.94;;;21.24;64.97
46534;BME280;32260;52.008;4.752;2022-08-19T00:37:04;101424.31;;;21.23;65.27
46534;BME280;32260;52.008;4.752;2022-08-19T00:39:31;101422.50;;;21.23;65.01
46534;BME280;32260;52.008;4.752;2022-08-19T00:41:57;101418.09;;;21.22;65.35
46534;BME280;32260;52.008;4.752;2022-08-19T00:44:27;101427.88;;;21.23;65.30
46534;BME280;32260;52.008;4.752;2022-08-19T00:46:56;101427.13;;;21.21;65.02
46534;BME280;32260;52.008;4.752;2022-08-19T00:49:30;101421.72;;;21.21;65.04
46534;BME280;32260;52.008;4.752;2022-08-19T00:52:04;101427.28;;;21.18;65.34
46534;BME280;32260;52.008;4.752;2022-08-19T00:54:33;101429.34;;;21.13;64.97
46534;BME280;32260;52.008;4.752;2022-08-19T00:57:00;101436.63;;;21.11;65.34
46534;BME280;32260;52.008;4.752;2022-08-19T00:59:29;101431.25;;;21.11;65.30
46534;BME280;32260;52.008;4.752;2022-08-19T01:01:56;101431.25;;;21.11;65.34
46534;BME280;32260;52.008;4.752;2022-08-19T01:04:24;101437.53;;;21.11;65.53
46534;BME280;32260;52.008;4.752;2022-08-19T01:06:51;101440.31;;;21.10;65.45
46534;BME280;32260;52.008;4.752;2022-08-19T01:09:18;101443.97;;;21.09;65.33
46534;BME280;32260;52.008;4.752;2022-08-19T01:11:45;101444.09;;;21.06;65.38
46534;BME280;32260;52.008;4.752;2022-08-19T01:14:13;101440.66;;;21.04;65.67
46534;BME280;32260;52.008;4.752;2022-08-19T01:16:42;101453.22;;;21.03;65.17
46534;BME280;32260;52.008;4.752;2022-08-19T01:19:24;101448.72;;;21.04;65.36
46534;BME280;32260;52.008;4.752;2022-08-19T01:21:59;101444.28;;;21.03;65.27
46534;BME280;32260;52.008;4.752;2022-08-19T01:24:27;101433.66;;;20.99;65.22
46534;BME280;32260;52.008;4.752;2022-08-19T01:26:54;101438.19;;;20.99;65.71
46534;BME280;32260;52.008;4.752;2022-08-19T01:29:21;101431.91;;;20.98;65.95
46534;BME280;32260;52.008;4.752;2022-08-19T01:31:48;101444.63;;;20.96;65.69
46534;BME280;32260;52.008;4.752;2022-08-19T01:34:19;101440.28;;;20.94;65.24
46534;BME280;32260;52.008;4.752;2022-08-19T01:36:47;101440.38;;;20.92;66.24
46534;BME280;32260;52.008;4.752;2022-08-19T01:39:20;101444.97;;;20.90;65.84
46534;BME280;32260;52.008;4.752;2022-08-19T01:41:48;101451.28;;;20.89;66.10
46534;BME280;32260;52.008;4.752;2022-08-19T01:44:16;101451.38;;;20.88;66.47
46534;BME280;32260;52.008;4.752;2022-08-19T01:46:47;101446.84;;;20.88;66.39
46534;BME280;32260;52.008;4.752;2022-08-19T01:49:19;101445.28;;;20.84;66.72
46534;BME280;32260;52.008;4.752;2022-08-19T01:51:47;101453.38;;;20.84;66.62
46534;BME280;32260;52.008;4.752;2022-08-19T01:54:15;101445.44;;;20.81;67.40
46534;BME280;32260;52.008;4.752;2022-08-19T01:56:42;101446.47;;;20.78;67.07
46534;BME280;32260;52.008;4.752;2022-08-19T01:59:14;101444.66;;;20.79;66.84
46534;BME280;32260;52.008;4.752;2022-08-19T02:01:46;101449.09;;;20.80;66.45
46534;BME280;32260;52.008;4.752;2022-08-19T02:04:13;101446.56;;;20.77;66.70
46534;BME280;32260;52.008;4.752;2022-08-19T02:06:40;101442.13;;;20.76;66.53
46534;BME280;32260;52.008;4.752;2022-08-19T02:09:11;101452.75;;;20.79;66.78
46534;BME280;32260;52.008;4.752;2022-08-19T02:11:38;101450.28;;;20.74;67.33
46534;BME280;32260;52.008;4.752;2022-08-19T02:14:07;101445.75;;;20.75;66.94
46534;BME280;32260;52.008;4.752;2022-08-19T02:16:36;101447.59;;;20.74;66.97
46534;BME280;32260;52.008;4.752;2022-08-19T02:19:07;101439.59;;;20.73;67.04
46534;BME280;32260;52.008;4.752;2022-08-19T02:21:36;101446.78;;;20.72;66.68
46534;BME280;32260;52.008;4.752;2022-08-19T02:24:04;101449.53;;;20.71;67.21
46534;BME280;32260;52.008;4.752;2022-08-19T02:26:33;101440.56;;;20.72;66.88
46534;BME280;32260;52.008;4.752;2022-08-19T02:29:04;101438.66;;;20.74;66.83
46534;BME280;32260;52.008;4.752;2022-08-19T02:31:32;101446.84;;;20.71;66.58
46534;BME280;32260;52.008;4.752;2022-08-19T02:34:00;101438.78;;;20.71;66.56
46534;BME280;32260;52.008;4.752;2022-08-19T02:36:30;101441.41;;;20.72;66.19
46534;BME280;32260;52.008;4.752;2022-08-19T02:38:59;101437.03;;;20.69;66.48
46534;BME280;32260;52.008;4.752;2022-08-19T02:41:29;101437.03;;;20.69;66.91
46534;BME280;32260;52.008;4.752;2022-08-19T02:44:00;101427.22;;;20.68;66.78
46534;BME280;32260;52.008;4.752;2022-08-19T02:46:41;101420.16;;;20.66;67.32
46534;BME280;32260;52.008;4.752;2022-08-19T02:49:09;101424.69;;;20.65;66.99
46534;BME280;32260;52.008;4.752;2022-08-19T02:51:44;101425.50;;;20.67;67.07
46534;BME280;32260;52.008;4.752;2022-08-19T02:54:15;101424.88;;;20.62;67.15
46534;BME280;32260;52.008;4.752;2022-08-19T02:56:45;101427.63;;;20.61;66.95
46534;BME280;32260;52.008;4.752;2022-08-19T02:59:12;101425.03;;;20.59;66.63
46534;BME280;32260;52.008;4.752;2022-08-19T03:01:42;101430.41;;;20.59;67.01
46534;BME280;32260;52.008;4.752;2022-08-19T03:04:14;101423.28;;;20.58;66.96
46534;BME280;32260;52.008;4.752;2022-08-19T03:06:48;101427.72;;;20.59;67.33
46534;BME280;32260;52.008;4.752;2022-08-19T03:09:16;101417.13;;;20.56;67.20
46534;BME280;32260;52.008;4.752;2022-08-19T03:11:45;101417.34;;;20.51;67.28
46534;BME280;32260;52.008;4.752;2022-08-19T03:14:14;101422.84;;;20.50;67.36
46534;BME280;32260;52.008;4.752;2022-08-19T03:16:46;101419.16;;;20.51;67.21
46534;BME280;32260;52.008;4.752;2022-08-19T03:19:18;101413.00;;;20.49;67.20
46534;BME280;32260;52.008;4.752;2022-08-19T03:21:51;101412.28;;;20.45;66.96
46534;BME280;32260;52.008;4.752;2022-08-19T03:24:19;101408.09;;;20.40;66.69
46534;BME280;32260;52.008;4.752;2022-08-19T03:26:49;101411.72;;;20.39;66.90
46534;BME280;32260;52.008;4.752;2022-08-19T03:29:17;101400.19;;;20.36;67.16
46534;BME280;32260;52.008;4.752;2022-08-19T03:31:45;101401.94;;;20.38;67.26
46534;BME280;32260;52.008;4.752;2022-08-19T03:34:14;101400.28;;;20.35;67.74
46534;BME280;32260;52.008;4.752;2022-08-19T03:36:43;101398.44;;;20.35;67.21
46534;BME280;32260;52.008;4.752;2022-08-19T03:39:11;101398.44;;;20.35;67.63
46534;BME280;32260;52.008;4.752;2022-08-19T03:41:41;101400.19;;;20.36;67.55
46534;BME280;32260;52.008;4.752;2022-08-19T03:44:08;101400.19;;;20.36;67.73
46534;BME280;32260;52.008;4.752;2022-08-19T03:46:36;101406.53;;;20.35;67.58
46534;BME280;32260;52.008;4.752;2022-08-19T03:49:04;101403.91;;;20.34;67.64
46534;BME280;32260;52.008;4.752;2022-08-19T03:51:38;101412.75;;;20.36;67.72
46534;BME280;32260;52.008;4.752;2022-08-19T03:54:08;101412.84;;;20.34;67.61
46534;BME280;32260;52.008;4.752;2022-08-19T03:56:39;101411.09;;;20.33;67.75
46534;BME280;32260;52.008;4.752;2022-08-19T03:59:09;101410.25;;;20.33;67.67
46534;BME280;32260;52.008;4.752;2022-08-19T04:01:38;101417.53;;;20.31;67.71
46534;BME280;32260;52.008;4.752;2022-08-19T04:04:05;101422.97;;;20.29;67.76
46534;BME280;32260;52.008;4.752;2022-08-19T04:06:35;101422.28;;;20.26;68.97
46534;BME280;32260;52.008;4.752;2022-08-19T04:09:09;101424.88;;;20.27;68.75
46534;BME280;32260;52.008;4.752;2022-08-19T04:11:40;101423.16;;;20.26;69.33
46534;BME280;32260;52.008;4.752;2022-08-19T04:14:13;101412.53;;;20.23;69.92
46534;BME280;32260;52.008;4.752;2022-08-19T04:16:40;101419.66;;;20.24;69.39
46534;BME280;32260;52.008;4.752;2022-08-19T04:19:10;101416.81;;;20.27;69.64
46534;BME280;32260;52.008;4.752;2022-08-19T04:21:38;101414.09;;;20.27;69.08
46534;BME280;32260;52.008;4.752;2022-08-19T04:24:11;101412.03;;;20.32;69.63
46534;BME280;32260;52.008;4.752;2022-08-19T04:26:41;101424.56;;;20.33;69.95
46534;BME280;32260;52.008;4.752;2022-08-19T04:29:14;101423.53;;;20.36;69.84
46534;BME280;32260;52.008;4.752;2022-08-19T04:31:43;101421.09;;;20.31;70.23
46534;BME280;32260;52.008;4.752;2022-08-19T04:34:13;101423.69;;;20.33;70.29
46534;BME280;32260;52.008;4.752;2022-08-19T04:36:43;101420.78;;;20.38;69.97
46534;BME280;32260;52.008;4.752;2022-08-19T04:39:15;101419.97;;;20.35;70.37
46534;BME280;32260;52.008;4.752;2022-08-19T04:41:44;101424.31;;;20.38;70.52
46534;BME280;32260;52.008;4.752;2022-08-19T04:44:35;101430.13;;;20.30;70.69
46534;BME280;32260;52.008;4.752;2022-08-19T04:47:03;101426.22;;;20.36;69.77
46534;BME280;32260;52.008;4.752;2022-08-19T04:49:33;101427.09;;;20.36;70.01
46534;BME280;32260;52.008;4.752;2022-08-19T04:52:03;101429.78;;;20.36;70.01
46534;BME280;32260;52.008;4.752;2022-08-19T04:54:32;101422.66;;;20.35;69.77
46534;BME280;32260;52.008;4.752;2022-08-19T04:57:02;101433.25;;;20.39;69.58
46534;BME280;32260;52.008;4.752;2022-08-19T04:59:38;101436.22;;;20.34;69.89
46534;BME280;32260;52.008;4.752;2022-08-19T05:02:15;101438.63;;;20.39;70.13
46534;BME280;32260;52.008;4.752;2022-08-19T05:04:47;101438.50;;;20.42;69.97
46534;BME280;32260;52.008;4.752;2022-08-19T05:07:21;101438.00;;;20.51;69.90
46534;BME280;32260;52.008;4.752;2022-08-19T05:09:49;101445.13;;;20.52;70.44
46534;BME280;32260;52.008;4.752;2022-08-19T05:12:18;101444.66;;;20.61;70.31
46534;BME280;32260;52.008;4.752;2022-08-19T05:14:49;101447.09;;;20.66;69.88
46534;BME280;32260;52.008;4.752;2022-08-19T05:17:23;101437.22;;;20.66;70.29
46534;BME280;32260;52.008;4.752;2022-08-19T05:19:50;101441.25;;;20.75;69.95
46534;BME280;32260;52.008;4.752;2022-08-19T05:22:37;101437.31;;;20.82;69.43
46534;BME280;32260;52.008;4.752;2022-08-19T05:25:10;101435.94;;;20.91;69.57
46534;BME280;32260;52.008;4.752;2022-08-19T05:27:41;101439.06;;;20.99;69.27
46534;BME280;32260;52.008;4.752;2022-08-19T05:30:12;101431.44;;;21.08;69.49
46534;BME280;32260;52.008;4.752;2022-08-19T05:32:40;101436.50;;;21.14;69.45
46534;BME280;32260;52.008;4.752;2022-08-19T05:35:09;101436.06;;;21.22;69.55
46534;BME280;32260;52.008;4.752;2022-08-19T05:37:38;101439.13;;;21.31;69.24
46534;BME280;32260;52.008;4.752;2022-08-19T05:40:10;101447.09;;;21.33;69.84
46534;BME280;32260;52.008;4.752;2022-08-19T05:42:38;101445.13;;;21.37;69.59
46534;BME280;32260;52.008;4.752;2022-08-19T05:45:06;101445.38;;;21.48;69.16
46534;BME280;32260;52.008;4.752;2022-08-19T05:47:33;101444.25;;;21.52;69.41
46534;BME280;32260;52.008;4.752;2022-08-19T05:50:03;101446.47;;;21.61;69.05
46534;BME280;32260;52.008;4.752;2022-08-19T05:52:30;101438.03;;;21.68;68.94
46534;BME280;32260;52.008;4.752;2022-08-19T05:54:57;101438.47;;;21.76;68.70
46534;BME280;32260;52.008;4.752;2022-08-19T05:57:24;101435.47;;;21.80;68.75
46534;BME280;32260;52.008;4.752;2022-08-19T05:59:57;101439.28;;;21.92;68.59
46534;BME280;32260;52.008;4.752;2022-08-19T06:02:29;101434.69;;;21.94;68.61
46534;BME280;32260;52.008;4.752;2022-08-19T06:04:57;101430.56;;;22.03;68.33
46534;BME280;32260;52.008;4.752;2022-08-19T06:07:23;101441.00;;;22.09;68.12
46534;BME280;32260;52.008;4.752;2022-08-19T06:09:50;101433.56;;;22.13;68.05
46534;BME280;32260;52.008;4.752;2022-08-19T06:12:17;101435.16;;;22.17;68.00
46534;BME280;32260;52.008;4.752;2022-08-19T06:14:46;101436.53;;;22.24;67.93
46534;BME280;32260;52.008;4.752;2022-08-19T06:17:16;101435.16;;;22.32;67.77
46534;BME280;32260;52.008;4.752;2022-08-19T06:19:42;101429.59;;;22.35;67.65
46534;BME280;32260;52.008;4.752;2022-08-19T06:22:10;101432.47;;;22.32;67.34
46534;BME280;32260;52.008;4.752;2022-08-19T06:24:37;101429.78;;;22.32;67.15
46534;BME280;32260;52.008;4.752;2022-08-19T06:27:04;101427.88;;;22.34;67.00
46534;BME280;32260;52.008;4.752;2022-08-19T06:29:31;101427.38;;;22.27;67.25
46534;BME280;32260;52.008;4.752;2022-08-19T06:31:59;101430.34;;;22.22;67.37
46534;BME280;32260;52.008;4.752;2022-08-19T06:34:27;101430.34;;;22.22;67.32
46534;BME280;32260;52.008;4.752;2022-08-19T06:36:55;101429.97;;;22.28;67.54
46534;BME280;32260;52.008;4.752;2022-08-19T06:39:24;101424.22;;;22.35;67.63
46534;BME280;32260;52.008;4.752;2022-08-19T06:41:54;101436.91;;;22.33;67.89
46534;BME280;32260;52.008;4.752;2022-08-19T06:44:22;101435.38;;;22.28;67.72
46534;BME280;32260;52.008;4.752;2022-08-19T06:46:49;101429.97;;;22.28;67.86
46534;BME280;32260;52.008;4.752;2022-08-19T06:49:17;101428.22;;;22.27;67.50
46534;BME280;32260;52.008;4.752;2022-08-19T06:51:45;101426.91;;;22.35;67.54
46534;BME280;32260;52.008;4.752;2022-08-19T06:54:14;101420.91;;;22.29;67.56
46534;BME280;32260;52.008;4.752;2022-08-19T06:56:41;101424.03;;;22.38;67.23
46534;BME280;32260;52.008;4.752;2022-08-19T06:59:13;101432.19;;;22.36;67.60
46534;BME280;32260;52.008;4.752;2022-08-19T07:01:43;101437.59;;;22.36;67.79
46534;BME280;32260;52.008;4.752;2022-08-19T07:04:15;101439.88;;;22.44;67.62
46534;BME280;32260;52.008;4.752;2022-08-19T07:06:45;101439.69;;;22.47;67.32
46534;BME280;32260;52.008;4.752;2022-08-19T07:09:17;101443.38;;;22.60;67.00
46534;BME280;32260;52.008;4.752;2022-08-19T07:11:48;101451.88;;;22.69;67.31
46534;BME280;32260;52.008;4.752;2022-08-19T07:14:18;101452.56;;;22.72;67.32
46534;BME280;32260;52.008;4.752;2022-08-19T07:16:50;101454.22;;;22.89;66.81
46534;BME280;32260;52.008;4.752;2022-08-19T07:19:20;101458.94;;;23.00;66.70
46534;BME280;32260;52.008;4.752;2022-08-19T07:21:50;101454.31;;;23.02;66.04
46534;BME280;32260;52.008;4.752;2022-08-19T07:24:22;101458.88;;;23.16;66.12
46534;BME280;32260;52.008;4.752;2022-08-19T07:26:55;101455.75;;;23.37;65.97
46534;BME280;32260;52.008;4.752;2022-08-19T07:29:23;101449.41;;;23.38;65.61
46534;BME280;32260;52.008;4.752;2022-08-19T07:31:51;101451.22;;;23.37;64.98
46534;BME280;32260;52.008;4.752;2022-08-19T07:34:18;101448.59;;;23.50;64.95
46534;BME280;32260;52.008;4.752;2022-08-19T07:36:46;101449.25;;;23.54;64.75
46534;BME280;32260;52.008;4.752;2022-08-19T07:39:17;101445.72;;;23.66;65.02
46534;BME280;32260;52.008;4.752;2022-08-19T07:41:45;101442.16;;;23.66;64.64
46534;BME280;32260;52.008;4.752;2022-08-19T07:44:13;101452.44;;;23.61;64.70
46534;BME280;32260;52.008;4.752;2022-08-19T07:46:44;101443.22;;;23.78;64.42
46534;BME280;32260;52.008;4.752;2022-08-19T07:49:11;101440.41;;;23.79;64.42
46534;BME280;32260;52.008;4.752;2022-08-19T07:51:46;101447.78;;;23.90;64.22
46534;BME280;32260;52.008;4.752;2022-08-19T07:54:15;101457.91;;;24.01;63.93
46534;BME280;32260;52.008;4.752;2022-08-19T07:56:43;101461.19;;;24.06;62.86
46534;BME280;32260;52.008;4.752;2022-08-19T07:59:10;101463.88;;;24.06;62.81
46534;BME280;32260;52.008;4.752;2022-08-19T08:01:38;101466.84;;;24.16;62.77
46534;BME280;32260;52.008;4.752;2022-08-19T08:04:07;101469.38;;;24.32;62.66
46534;BME280;32260;52.008;4.752;2022-08-19T08:06:54;101471.78;;;24.36;62.05
46534;BME280;32260;52.008;4.752;2022-08-19T08:09:43;101473.53;;;24.50;61.51
46534;BME280;32260;52.008;4.752;2022-08-19T08:12:22;101480.81;;;24.63;61.06
46534;BME280;32260;52.008;4.752;2022-08-19T08:14:55;101472.69;;;24.63;60.33
46534;BME280;32260;52.008;4.752;2022-08-19T08:17:27;101479.84;;;24.64;59.84
46534;BME280;32260;52.008;4.752;2022-08-19T08:19:55;101475.31;;;24.77;59.18
46534;BME280;32260;52.008;4.752;2022-08-19T08:22:24;101476.09;;;24.79;59.06
46534;BME280;32260;52.008;4.752;2022-08-19T08:25:15;101478.03;;;25.03;59.68
46534;BME280;32260;52.008;4.752;2022-08-19T08:27:44;101484.50;;;25.13;59.57
46534;BME280;32260;52.008;4.752;2022-08-19T08:30:15;101480.63;;;25.17;59.14
46534;BME280;32260;52.008;4.752;2022-08-19T08:32:42;101479.84;;;25.28;59.31
46534;BME280;32260;52.008;4.752;2022-08-19T08:35:13;101490.28;;;25.22;58.76
46534;BME280;32260;52.008;4.752;2022-08-19T08:37:41;101485.28;;;25.15;58.81
46534;BME280;32260;52.008;4.752;2022-08-19T08:40:18;101490.06;;;25.12;58.86
46534;BME280;32260;52.008;4.752;2022-08-19T08:42:55;101487.78;;;25.06;58.88
46534;BME280;32260;52.008;4.752;2022-08-19T08:45:28;101502.44;;;25.03;59.09
46534;BME280;32260;52.008;4.752;2022-08-19T08:48:04;101502.22;;;25.06;58.90
46534;BME280;32260;52.008;4.752;2022-08-19T08:50:41;101496.38;;;25.12;59.00
46534;BME280;32260;52.008;4.752;2022-08-19T08:53:11;101499.38;;;25.20;59.39
46534;BME280;32260;52.008;4.752;2022-08-19T08:55:44;101498.94;;;25.27;59.31
46534;BME280;32260;52.008;4.752;2022-08-19T08:58:19;101500.34;;;25.32;59.30
46534;BME280;32260;52.008;4.752;2022-08-19T09:00:49;101505.25;;;25.40;59.26
46534;BME280;32260;52.008;4.752;2022-08-19T09:03:22;101511.19;;;25.45;59.04
46534;BME280;32260;52.008;4.752;2022-08-19T09:06:00;101498.69;;;25.56;59.19
46534;BME280;32260;52.008;4.752;2022-08-19T09:11:55;101506.75;;;25.81;58.53
46534;BME280;32260;52.008;4.752;2022-08-19T09:14:48;101503.19;;;25.81;57.43
46534;BME280;32260;52.008;4.752;2022-08-19T09:17:17;101510.16;;;25.72;58.05
46534;BME280;32260;52.008;4.752;2022-08-19T09:22:27;101501.63;;;25.90;57.64
46534;BME280;32260;52.008;4.752;2022-08-19T09:24:53;101509.09;;;25.99;57.79
46534;BME280;32260;52.008;4.752;2022-08-19T09:27:21;101505.25;;;26.02;57.71
46534;BME280;32260;52.008;4.752;2022-08-19T09:29:50;101502.28;;;26.18;56.92
46534;BME280;32260;52.008;4.752;2022-08-19T09:32:16;101500.22;;;26.21;56.47
46534;BME280;32260;52.008;4.752;2022-08-19T09:34:44;101502.06;;;26.21;56.34
46534;BME280;32260;52.008;4.752;2022-08-19T09:37:11;101497.25;;;26.24;56.78
46534;BME280;32260;52.008;4.752;2022-08-19T09:39:38;101502.28;;;26.42;56.55
46534;BME280;32260;52.008;4.752;2022-08-19T09:42:07;101501.19;;;26.44;55.81
46534;BME280;32260;52.008;4.752;2022-08-19T09:44:38;101506.16;;;26.62;55.48
46534;BME280;32260;52.008;4.752;2022-08-19T09:47:04;101496.44;;;26.71;54.72
46534;BME280;32260;52.008;4.752;2022-08-19T09:49:31;101491.84;;;26.71;55.64
46534;BME280;32260;52.008;4.752;2022-08-19T09:51:57;101498.59;;;26.54;55.84
46534;BME280;32260;52.008;4.752;2022-08-19T09:54:24;101500.97;;;26.70;56.05
46534;BME280;32260;52.008;4.752;2022-08-19T09:56:51;101495.00;;;26.89;55.27
46534;BME280;32260;52.008;4.752;2022-08-19T09:59:17;101499.22;;;27.27;54.22
46534;BME280;32260;52.008;4.752;2022-08-19T10:01:44;101503.59;;;27.53;53.99
46534;BME280;32260;52.008;4.752;2022-08-19T10:04:10;101497.38;;;27.62;52.80
46534;BME280;32260;52.008;4.752;2022-08-19T10:06:38;101503.16;;;27.69;53.03
46534;BME280;32260;52.008;4.752;2022-08-19T10:09:06;101499.59;;;27.68;52.81
46534;BME280;32260;52.008;4.752;2022-08-19T10:11:34;101504.78;;;27.60;53.43
46534;BME280;32260;52.008;4.752;2022-08-19T10:14:03;101498.88;;;27.43;53.82
46534;BME280;32260;52.008;4.752;2022-08-19T10:16:32;101497.47;;;27.04;53.60
46534;BME280;32260;52.008;4.752;2022-08-19T10:18:58;101500.06;;;27.05;54.14
46534;BME280;32260;52.008;4.752;2022-08-19T10:21:28;101496.84;;;27.00;54.30
46534;BME280;32260;52.008;4.752;2022-08-19T10:23:58;101496.72;;;26.90;54.47
46534;BME280;32260;52.008;4.752;2022-08-19T10:26:28;101486.94;;;26.88;54.53
46534;BME280;32260;52.008;4.752;2022-08-19T10:28:55;101500.06;;;26.83;54.43
46534;BME280;32260;52.008;4.752;2022-08-19T10:31:24;101498.25;;;26.70;54.97
46534;BME280;32260;52.008;4.752;2022-08-19T10:33:51;101496.78;;;26.66;55.22
46534;BME280;32260;52.008;4.752;2022-08-19T10:36:26;101500.28;;;26.44;56.70
46534;BME280;32260;52.008;4.752;2022-08-19T10:38:55;101505.22;;;26.39;56.82
46534;BME280;32260;52.008;4.752;2022-08-19T10:41:29;101502.97;;;26.32;56.52
46534;BME280;32260;52.008;4.752;2022-08-19T10:43:57;101504.06;;;26.30;56.30
46534;BME280;32260;52.008;4.752;2022-08-19T10:46:25;101503.53;;;26.13;57.20
46534;BME280;32260;52.008;4.752;2022-08-19T10:48:53;101491.94;;;26.23;57.38
46534;BME280;32260;52.008;4.752;2022-08-19T10:51:20;101498.19;;;26.36;57.67
46534;BME280;32260;52.008;4.752;2022-08-19T10:54:07;101485.25;;;26.51;57.99
46534;BME280;32260;52.008;4.752;2022-08-19T10:56:33;101492.09;;;26.68;56.64
46534;BME280;32260;52.008;4.752;2022-08-19T10:59:24;101483.50;;;26.86;55.65
46534;BME280;32260;52.008;4.752;2022-08-19T11:01:54;101491.19;;;27.03;54.68
46534;BME280;32260;52.008;4.752;2022-08-19T11:04:24;101488.59;;;27.02;54.05
46534;BME280;32260;52.008;4.752;2022-08-19T11:06:50;101492.53;;;26.98;52.83
46534;BME280;32260;52.008;4.752;2022-08-19T11:09:21;101491.31;;;27.13;53.73
46534;BME280;32260;52.008;4.752;2022-08-19T11:11:50;101487.84;;;27.22;54.09
46534;BME280;32260;52.008;4.752;2022-08-19T11:14:22;101489.84;;;27.32;52.96
46534;BME280;32260;52.008;4.752;2022-08-19T11:16:52;101489.72;;;27.33;52.85
46534;BME280;32260;52.008;4.752;2022-08-19T11:19:22;101489.59;;;27.46;53.04
46534;BME280;32260;52.008;4.752;2022-08-19T11:21:51;101488.44;;;27.60;52.38
46534;BME280;32260;52.008;4.752;2022-08-19T11:24:21;101489.94;;;27.64;51.53
46534;BME280;32260;52.008;4.752;2022-08-19T11:26:50;101487.44;;;27.72;52.07
46534;BME280;32260;52.008;4.752;2022-08-19T11:29:19;101490.06;;;27.74;51.42
46534;BME280;32260;52.008;4.752;2022-08-19T11:31:47;101490.44;;;27.69;51.72
46534;BME280;32260;52.008;4.752;2022-08-19T11:34:20;101484.25;;;27.67;52.52
46534;BME280;32260;52.008;4.752;2022-08-19T11:36:47;101486.97;;;27.56;52.07
46534;BME280;32260;52.008;4.752;2022-08-19T11:39:17;101483.78;;;27.51;52.69
46534;BME280;32260;52.008;4.752;2022-08-19T11:41:44;101494.41;;;27.31;52.16
46534;BME280;32260;52.008;4.752;2022-08-19T11:44:11;101487.84;;;26.88;53.12
46534;BME280;32260;52.008;4.752;2022-08-19T11:46:40;101485.66;;;26.69;54.14
46534;BME280;32260;52.008;4.752;2022-08-19T11:49:07;101483.38;;;26.52;54.60
46534;BME280;32260;52.008;4.752;2022-08-19T11:51:35;101490.03;;;26.36;55.50
46534;BME280;32260;52.008;4.752;2022-08-19T11:54:04;101490.59;;;26.04;56.15
46534;BME280;32260;52.008;4.752;2022-08-19T11:56:30;101494.19;;;26.05;56.15
46534;BME280;32260;52.008;4.752;2022-08-19T11:58:57;101501.28;;;26.07;57.16
46534;BME280;32260;52.008;4.752;2022-08-19T12:01:25;101498.56;;;26.07;56.43
46534;BME280;32260;52.008;4.752;2022-08-19T12:03:53;101491.94;;;26.23;56.55
46534;BME280;32260;52.008;4.752;2022-08-19T12:06:22;101493.38;;;26.40;56.17
46534;BME280;32260;52.008;4.752;2022-08-19T12:08:52;101490.44;;;26.54;55.41
46534;BME280;32260;52.008;4.752;2022-08-19T12:11:19;101487.16;;;26.73;54.75
46534;BME280;32260;52.008;4.752;2022-08-19T12:13:45;101487.69;;;26.78;54.46
46534;BME280;32260;52.008;4.752;2022-08-19T12:16:18;101493.78;;;26.93;54.35
46534;BME280;32260;52.008;4.752;2022-08-19T12:18:45;101490.44;;;27.01;53.87
46534;BME280;32260;52.008;4.752;2022-08-19T12:21:13;101486.72;;;27.25;54.91
46534;BME280;32260;52.008;4.752;2022-08-19T12:23:41;101490.56;;;27.45;53.14
46534;BME280;32260;52.008;4.752;2022-08-19T12:26:11;101488.44;;;27.60;52.55
46534;BME280;32260;52.008;4.752;2022-08-19T12:28:38;101485.50;;;27.63;52.00
46534;BME280;32260;52.008;4.752;2022-08-19T12:31:05;101480.53;;;27.68;51.38
46534;BME280;32260;52.008;4.752;2022-08-19T12:33:32;101484.75;;;27.61;51.77
46534;BME280;32260;52.008;4.752;2022-08-19T12:36:03;101491.19;;;27.49;51.05
46534;BME280;32260;52.008;4.752;2022-08-19T12:38:30;101484.97;;;27.35;51.04
46534;BME280;32260;52.008;4.752;2022-08-19T12:40:56;101493.53;;;27.31;52.15
46534;BME280;32260;52.008;4.752;2022-08-19T12:43:22;101482.03;;;27.27;51.97
46534;BME280;32260;52.008;4.752;2022-08-19T12:45:53;101480.81;;;27.42;52.00
46534;BME280;32260;52.008;4.752;2022-08-19T12:48:20;101488.31;;;27.39;53.15
46534;BME280;32260;52.008;4.752;2022-08-19T12:50:48;101483.53;;;27.42;53.69
46534;BME280;32260;52.008;4.752;2022-08-19T12:53:14;101484.25;;;27.33;54.54
46534;BME280;32260;52.008;4.752;2022-08-19T12:55:42;101484.50;;;27.30;54.87
46534;BME280;32260;52.008;4.752;2022-08-19T12:58:09;101471.03;;;27.28;55.56
46534;BME280;32260;52.008;4.752;2022-08-19T13:00:36;101488.09;;;27.31;55.61
46534;BME280;32260;52.008;4.752;2022-08-19T13:03:02;101482.28;;;27.24;56.48
46534;BME280;32260;52.008;4.752;2022-08-19T13:05:31;101484.75;;;27.16;56.10
46534;BME280;32260;52.008;4.752;2022-08-19T13:07:58;101486.38;;;27.07;56.91
46534;BME280;32260;52.008;4.752;2022-08-19T13:10:29;101490.44;;;27.01;57.62